createdAt,value
2023-03-16T00:00:11.833Z,13.5
2023-03-16T00:06:02.889Z,15.6
2023-03-16T00:18:13.886Z,12.7
2023-03-16T00:30:47.732Z,14.6
2023-03-16T00:36:39.553Z,12.9
2023-03-16T00:42:53.253Z,12.3
2023-03-16T00:49:07.785Z,12.4
2023-03-16T00:55:18.989Z,11.6
2023-03-16T01:01:33.222Z,12.8
2023-03-16T01:07:36.588Z,11.8
2023-03-16T01:13:45.781Z,12.4
2023-03-16T01:19:36.512Z,9.6
2023-03-16T01:25:59.511Z,10.5
2023-03-16T01:32:08.288Z,12.5
2023-03-16T01:38:03.481Z,10.6
2023-03-16T01:44:22.062Z,11.7
2023-03-16T01:56:47.325Z,11.2
2023-03-16T02:08:58.290Z,9.4
2023-03-16T02:15:03.301Z,11.7
2023-03-16T02:21:01.888Z,9.7
2023-03-16T02:27:08.467Z,10.6
2023-03-16T02:33:54.325Z,10.8
2023-03-16T02:40:05.663Z,11.9
2023-03-16T02:52:09.475Z,12.3
2023-03-16T02:58:04.952Z,11
2023-03-16T03:04:10.077Z,12.8
2023-03-16T03:10:12.756Z,10.6
2023-03-16T03:16:06.825Z,12.5
2023-03-16T03:22:12.522Z,11.5
2023-03-16T03:28:15.468Z,12.4
2023-03-16T03:34:16.696Z,10.6
2023-03-16T03:40:14.351Z,9.3
2023-03-16T03:46:21.174Z,10.2
2023-03-16T03:52:17.638Z,10.3
2023-03-16T03:58:24.111Z,11.5
2023-03-16T04:04:28.522Z,8.7
2023-03-16T04:10:24.461Z,10.6
2023-03-16T04:16:23.695Z,9.6
2023-03-16T04:22:40.768Z,9
2023-03-16T04:28:33.062Z,11.3
2023-03-16T04:34:27.842Z,10.6
2023-03-16T04:40:40.202Z,11.5
2023-03-16T04:46:46.368Z,10.3
2023-03-16T04:52:51.378Z,11.6
2023-03-16T04:58:53.719Z,13
2023-03-16T05:05:07.953Z,12.1
2023-03-16T05:11:15.138Z,13.5
2023-03-16T05:17:22.609Z,12.3
2023-03-16T05:23:21.307Z,14.6
2023-03-16T05:30:24.772Z,13.4
2023-03-16T05:36:17.748Z,14
2023-03-16T05:42:09.937Z,14.6
2023-03-16T05:48:00.265Z,15.6
2023-03-16T05:53:49.626Z,17.3
2023-03-16T05:59:37.717Z,15.6
2023-03-16T06:05:27.189Z,14.3
2023-03-16T06:11:16.461Z,14.8
2023-03-16T06:17:07.947Z,20.3
2023-03-16T06:23:06.061Z,14.7
2023-03-16T06:28:59.057Z,15.1
2023-03-16T06:34:51.235Z,16.8
2023-03-16T06:40:42.729Z,17.9
2023-03-16T06:46:35.129Z,21.1
2023-03-16T06:52:26.902Z,16.4
2023-03-16T06:58:17.962Z,15.6
2023-03-16T07:04:07.835Z,13.2
2023-03-16T07:10:11.988Z,14
2023-03-16T07:16:06.473Z,15.3
2023-03-16T07:21:56.830Z,15.8
2023-03-16T07:27:49.073Z,13.7
2023-03-16T07:33:38.883Z,16.6
2023-03-16T07:39:29.815Z,14.9
2023-03-16T07:45:20.282Z,16.4
2023-03-16T07:51:09.864Z,15.8
2023-03-16T07:56:59.059Z,15.5
2023-03-16T08:02:48.937Z,16
2023-03-16T08:08:46.364Z,15.8
2023-03-16T08:14:35.875Z,16.7
2023-03-16T08:20:25.733Z,16.5
2023-03-16T08:26:16.905Z,18.5
2023-03-16T08:32:08.132Z,17.3
2023-03-16T08:37:59.897Z,16.8
2023-03-16T08:43:54.132Z,18
2023-03-16T08:49:47.331Z,16
2023-03-16T08:55:37.142Z,16
2023-03-16T09:01:26.856Z,16
2023-03-16T09:07:17.620Z,16.7
2023-03-16T09:13:08.032Z,18.3
2023-03-16T09:18:59.187Z,17.5
2023-03-16T09:24:50.479Z,16.2
2023-03-16T09:30:39.485Z,17.3
2023-03-16T09:36:31.982Z,16.8
2023-03-16T09:42:22.272Z,16
2023-03-16T09:48:14.808Z,16
2023-03-16T09:54:05.888Z,15.6
2023-03-16T09:59:56.758Z,16.3
2023-03-16T10:05:47.828Z,14.9
2023-03-16T10:11:38.886Z,15.9
2023-03-16T10:17:29.721Z,14.8
2023-03-16T10:23:21.306Z,12.6
2023-03-16T10:29:11.535Z,12.6
2023-03-16T10:35:02.202Z,12.3
2023-03-16T10:40:56.138Z,12.2
2023-03-16T10:46:47.698Z,14.5
2023-03-16T10:52:38.683Z,12
2023-03-16T10:58:32.697Z,11.4
2023-03-16T11:04:23.045Z,11.5
2023-03-16T11:10:13.624Z,11.5
2023-03-16T11:16:04.484Z,12.1
2023-03-16T11:21:57.578Z,12.2
2023-03-16T11:27:48.261Z,12.6
2023-03-16T11:33:39.615Z,12.1
2023-03-16T11:39:30.624Z,10.8
2023-03-16T11:45:21.467Z,10.6
2023-03-16T11:51:11.873Z,10.2
2023-03-16T11:57:03.174Z,9.7
2023-03-16T12:02:55.054Z,10.7
2023-03-16T12:08:46.059Z,9.6
2023-03-16T12:14:33.926Z,7.9
2023-03-16T12:20:24.630Z,8.5
2023-03-16T12:26:16.054Z,8.4
2023-03-16T12:32:06.947Z,6.6
2023-03-16T12:37:58.238Z,7.7
2023-03-16T12:43:49.771Z,18.8
2023-03-16T12:49:41.044Z,10.5
2023-03-16T12:55:33.242Z,8.1
2023-03-16T13:01:24.114Z,7.1
2023-03-16T13:07:17.697Z,6.8
2023-03-16T13:13:11.643Z,8.3
2023-03-16T13:19:03.511Z,5.7
2023-03-16T13:24:55.354Z,8.6
2023-03-16T13:30:48.645Z,9
2023-03-16T13:36:41.373Z,8.4
2023-03-16T13:42:38.284Z,6.5
2023-03-16T13:48:31.242Z,6.1
2023-03-16T13:54:23.069Z,9.6
2023-03-16T14:06:07.845Z,7.8
2023-03-16T14:12:00.988Z,7.6
2023-03-16T14:17:54.997Z,6.9
2023-03-16T14:23:58.878Z,7.7
2023-03-16T14:29:49.733Z,7.1
2023-03-16T14:35:42.423Z,9.5
2023-03-16T14:47:32.587Z,7.1
2023-03-16T15:06:00.361Z,6.9
2023-03-16T15:11:52.914Z,6.8
2023-03-16T15:23:48.499Z,6.1
2023-03-16T15:29:40.140Z,8.2
2023-03-16T15:35:35.282Z,8.5
2023-03-16T15:41:51.709Z,8.7
2023-03-16T15:47:57.127Z,10.3
2023-03-16T15:54:01.041Z,8.1
2023-03-16T16:25:23.232Z,9
2023-03-16T16:31:13.189Z,10.6
2023-03-16T16:37:05.605Z,9.1
2023-03-16T16:42:59.078Z,10.9
2023-03-16T16:49:03.933Z,9.1
2023-03-16T16:55:12.938Z,7.6
2023-03-16T17:01:20.920Z,8
2023-03-16T17:07:20.171Z,7.4
2023-03-16T17:13:11.390Z,8.2
2023-03-16T17:19:03.062Z,8.5
2023-03-16T17:24:57.559Z,8.6
2023-03-16T17:30:52.260Z,7.3
2023-03-16T17:36:54.652Z,8.2
2023-03-16T17:43:03.516Z,7.6
2023-03-16T17:49:07.293Z,7.7
2023-03-16T17:55:11.987Z,8.4
2023-03-16T18:01:31.379Z,8.4
2023-03-16T18:32:17.371Z,8.1
2023-03-16T18:38:58.584Z,7.8
2023-03-16T18:45:07.942Z,8.3
2023-03-16T18:51:03.307Z,9.9
2023-03-16T19:14:45.197Z,10.8
2023-03-16T19:21:16.520Z,11.2
2023-03-16T19:45:02.537Z,10.8
2023-03-16T20:03:04.271Z,11
2023-03-16T20:09:00.645Z,10.4
2023-03-16T20:15:18.287Z,11.3
2023-03-16T20:21:22.475Z,11.1
2023-03-16T20:27:34.365Z,12.7
2023-03-16T21:14:54.027Z,8.2
2023-03-16T21:21:25.017Z,9.7
2023-03-16T21:27:56.672Z,8.5
2023-03-16T22:06:09.314Z,7.6
2023-03-16T22:18:10.895Z,7.4
2023-03-16T22:30:35.560Z,8.8
2023-03-16T22:36:42.376Z,9.1
2023-03-16T22:42:53.465Z,7.9
2023-03-16T22:48:58.962Z,8.7
2023-03-16T22:55:15.987Z,7.6
2023-03-16T23:01:40.498Z,7.4
2023-03-16T23:25:10.021Z,7.9
2023-03-16T23:31:17.274Z,7.5
2023-03-16T23:37:15.646Z,7.9
2023-03-16T23:43:15.530Z,6.8
2023-03-16T23:49:23.742Z,7.3
2023-03-16T23:55:18.333Z,8.7
